createdAt,value
2023-04-06T00:01:15.826Z,56.2
2023-04-06T00:06:57.287Z,57
2023-04-06T00:11:57.309Z,57.7
2023-04-06T00:17:15.853Z,58.2
2023-04-06T00:22:57.300Z,60.1
2023-04-06T00:27:57.310Z,60.7
2023-04-06T00:33:15.832Z,61.3
2023-04-06T00:38:57.312Z,62.4
2023-04-06T00:44:15.824Z,63.3
2023-04-06T00:49:15.828Z,63.1
2023-04-06T00:54:15.839Z,63.6
2023-04-06T00:59:57.340Z,63.3
2023-04-06T01:05:15.846Z,62.4
2023-04-06T01:10:57.298Z,63.2
2023-04-06T01:15:57.344Z,64.5
2023-04-06T01:21:15.865Z,64.1
2023-04-06T01:26:57.317Z,64.7
2023-04-06T01:32:15.819Z,63.1
2023-04-06T01:37:57.294Z,63.3
2023-04-06T01:43:15.799Z,64
2023-04-06T01:48:15.829Z,63.6
2023-04-06T01:53:15.833Z,64.5
2023-04-06T01:58:57.350Z,64.2
2023-04-06T02:03:57.346Z,65.6
2023-04-06T02:09:15.799Z,65.4
2023-04-06T02:14:15.820Z,70.5
2023-04-06T02:19:15.812Z,66.5
2023-04-06T02:24:57.294Z,67.2
2023-04-06T02:29:57.287Z,65.1
2023-04-06T02:34:57.285Z,64.9
2023-04-06T02:39:57.293Z,65.9
2023-04-06T02:45:15.838Z,66.9
2023-04-06T02:50:57.294Z,66.6
2023-04-06T03:01:15.865Z,66.1
2023-04-06T03:06:58.781Z,66
2023-04-06T03:12:15.795Z,64.6
2023-04-06T03:17:15.798Z,64.9
2023-04-06T03:22:15.819Z,65.1
2023-04-06T03:27:15.820Z,64.8
2023-04-06T03:32:15.835Z,64.6
2023-04-06T03:37:57.301Z,64.6
2023-04-06T03:43:15.784Z,64.8
2023-04-06T03:48:15.810Z,65.5
2023-04-06T03:53:57.314Z,65.1
2023-04-06T03:59:15.836Z,64.1
2023-04-06T04:04:57.295Z,64.2
2023-04-06T04:10:15.780Z,64.9
2023-04-06T04:15:15.812Z,65
2023-04-06T04:20:57.288Z,66.1
2023-04-06T04:26:15.804Z,65.1
2023-04-06T04:31:15.809Z,65.4
2023-04-06T04:36:57.291Z,65.2
2023-04-06T04:42:15.828Z,66.2
2023-04-06T04:47:57.343Z,66.1
2023-04-06T04:52:57.331Z,66.5
2023-04-06T04:58:15.848Z,66.1
2023-04-06T05:03:25.949Z,66
2023-04-06T05:08:57.341Z,67.5
2023-04-06T05:14:11.356Z,66.6
2023-04-06T05:19:11.809Z,67.4
2023-04-06T05:24:15.795Z,67.7
2023-04-06T05:29:15.841Z,67.9
2023-04-06T05:34:57.301Z,67.8
2023-04-06T05:40:15.807Z,68
2023-04-06T05:45:57.265Z,68.3
2023-04-06T05:51:15.796Z,68.8
2023-04-06T05:56:57.277Z,68.1
2023-04-06T06:02:15.826Z,68.3
2023-04-06T06:07:15.789Z,68.1
2023-04-06T06:12:57.294Z,66.4
2023-04-06T06:18:15.816Z,63.8
2023-04-06T06:23:57.253Z,61.3
2023-04-06T06:28:57.326Z,60.7
2023-04-06T06:34:15.799Z,63.6
2023-04-06T06:39:57.267Z,61.1
2023-04-06T06:44:57.285Z,58.3
2023-04-06T06:49:57.299Z,56.6
2023-04-06T06:55:15.787Z,55.6
2023-04-06T07:00:15.791Z,55.1
2023-04-06T07:05:57.311Z,53.3
2023-04-06T07:11:15.796Z,51.8
2023-04-06T07:16:57.280Z,52.1
2023-04-06T07:21:57.297Z,50.5
2023-04-06T07:27:15.765Z,50.5
2023-04-06T07:32:15.955Z,49.1
2023-04-06T07:38:13.504Z,49.6
2023-04-06T07:43:15.798Z,47.2
2023-04-06T07:48:57.264Z,45.1
2023-04-06T07:53:57.279Z,44.6
2023-04-06T07:59:15.838Z,43.5
2023-04-06T08:04:57.344Z,42
2023-04-06T08:10:15.796Z,40.6
2023-04-06T08:15:15.801Z,38.5
2023-04-06T08:20:57.280Z,37.4
2023-04-06T08:26:15.804Z,37
2023-04-06T08:31:57.270Z,35.9
2023-04-06T08:36:57.266Z,37.9
2023-04-06T08:42:15.796Z,39.8
2023-04-06T08:47:57.293Z,41.2
2023-04-06T08:53:15.783Z,37.1
2023-04-06T08:58:57.395Z,35.2
2023-04-06T09:04:16.308Z,35.2
2023-04-06T09:09:57.249Z,37.1
2023-04-06T09:14:57.318Z,38.3
2023-04-06T09:20:15.799Z,35.9
2023-04-06T09:25:15.810Z,33.7
2023-04-06T09:30:57.345Z,33.1
2023-04-06T09:36:15.835Z,32.9
2023-04-06T09:41:57.334Z,34.7
2023-04-06T09:47:00.767Z,33.8
2023-04-06T09:51:57.307Z,36.2
2023-04-06T09:57:15.819Z,33.2
2023-04-06T10:02:15.814Z,32.6
2023-04-06T10:08:00.864Z,31
2023-04-06T10:13:15.813Z,31.3
2023-04-06T10:18:57.274Z,31.8
2023-04-06T10:24:15.814Z,31.3
2023-04-06T10:29:15.956Z,30.5
2023-04-06T10:34:57.288Z,32
2023-04-06T10:39:57.295Z,31.7
2023-04-06T10:44:57.319Z,30
2023-04-06T10:50:15.846Z,32.5
2023-04-06T10:55:57.301Z,32.6
2023-04-06T11:00:57.306Z,32.6
2023-04-06T11:05:57.315Z,31.4
2023-04-06T11:11:15.855Z,32.7
2023-04-06T11:16:57.338Z,33.1
2023-04-06T11:21:59.852Z,32.2
2023-04-06T11:27:15.811Z,32.9
2023-04-06T11:32:15.839Z,31.1
2023-04-06T11:37:58.620Z,31.8
2023-04-06T11:43:16.042Z,31.8
2023-04-06T11:48:57.381Z,31.7
2023-04-06T11:54:15.847Z,33.1
2023-04-06T11:59:25.885Z,31.2
2023-04-06T12:04:57.527Z,32
2023-04-06T12:09:57.672Z,34
2023-04-06T12:14:57.323Z,33.7
2023-04-06T12:20:25.975Z,33.7
2023-04-06T12:25:15.850Z,33
2023-04-06T12:30:15.862Z,33.2
2023-04-06T12:35:57.294Z,33.9
2023-04-06T12:40:57.293Z,34.2
2023-04-06T12:45:57.336Z,34.2
2023-04-06T12:51:15.836Z,34.1
2023-04-06T12:56:57.320Z,34.3
2023-04-06T13:01:57.369Z,34.9
2023-04-06T13:06:57.361Z,33.7
2023-04-06T13:12:15.872Z,33.6
2023-04-06T13:17:57.366Z,35.4
2023-04-06T13:22:57.353Z,34.5
2023-04-06T13:28:15.879Z,35.4
2023-04-06T13:33:57.324Z,35.1
2023-04-06T13:39:15.939Z,36.3
2023-04-06T13:44:57.368Z,35.1
2023-04-06T13:50:15.867Z,38.1
2023-04-06T13:55:57.348Z,37.2
2023-04-06T14:00:57.478Z,38
2023-04-06T14:06:29.642Z,37.5
2023-04-06T14:11:15.856Z,40.4
2023-04-06T14:16:15.896Z,41
2023-04-06T14:21:57.257Z,41.4
2023-04-06T14:26:57.359Z,40.4
2023-04-06T14:32:15.875Z,41.1
2023-04-06T14:37:15.876Z,42.2
2023-04-06T14:42:57.334Z,42.1
2023-04-06T14:47:57.378Z,41.9
2023-04-06T14:53:15.894Z,46.3
2023-04-06T14:59:09.101Z,46.3
2023-04-06T15:04:15.960Z,47.6
2023-04-06T15:09:15.893Z,47
2023-04-06T15:14:57.339Z,53.1
2023-04-06T15:20:15.888Z,57.9
2023-04-06T15:25:57.356Z,58.1
2023-04-06T15:31:28.342Z,58
2023-04-06T15:36:57.442Z,58.9
2023-04-06T15:42:15.925Z,62.6
2023-04-06T15:48:15.839Z,62.3
2023-04-06T15:53:15.908Z,62.6
2023-04-06T15:58:57.389Z,66.6
2023-04-06T16:03:57.490Z,68.7
2023-04-06T16:09:15.905Z,73.4
2023-04-06T16:14:57.346Z,80.9
2023-04-06T16:19:57.363Z,80.1
2023-04-06T16:25:15.888Z,82.4
2023-04-06T16:30:15.900Z,83.5
2023-04-06T16:35:57.373Z,83.4
2023-04-06T16:41:15.890Z,86.9
2023-04-06T16:46:15.952Z,93.7
2023-04-06T16:51:57.417Z,99.9
2023-04-06T16:57:15.945Z,100
2023-04-06T17:02:57.480Z,100
2023-04-06T17:08:15.866Z,100
2023-04-06T17:13:57.410Z,100
2023-04-06T17:18:57.398Z,100
2023-04-06T17:24:15.897Z,100
2023-04-06T17:29:15.889Z,100
2023-04-06T17:34:15.953Z,100
2023-04-06T17:39:57.409Z,100
2023-04-06T17:44:57.356Z,100
2023-04-06T17:50:15.958Z,100
2023-04-06T17:55:57.364Z,100
2023-04-06T18:00:57.367Z,100
2023-04-06T18:06:15.912Z,100
2023-04-06T18:11:57.350Z,100
2023-04-06T18:17:15.899Z,100
2023-04-06T18:22:57.360Z,100
2023-04-06T18:27:57.375Z,100
2023-04-06T18:32:57.378Z,100
2023-04-06T18:38:15.975Z,100
2023-04-06T18:43:15.911Z,100
2023-04-06T18:48:57.379Z,100
2023-04-06T18:54:15.895Z,100
2023-04-06T18:59:15.882Z,100
2023-04-06T19:04:57.553Z,100
2023-04-06T19:10:15.981Z,100
2023-04-06T19:15:57.361Z,100
2023-04-06T19:20:57.383Z,100
2023-04-06T19:26:15.858Z,100
2023-04-06T19:31:15.884Z,100
2023-04-06T19:36:57.344Z,100
2023-04-06T19:41:57.372Z,100
2023-04-06T19:46:57.404Z,100
2023-04-06T19:52:15.894Z,100
2023-04-06T19:57:57.341Z,100
2023-04-06T20:02:57.618Z,100
2023-04-06T20:08:15.893Z,100
2023-04-06T20:13:15.897Z,100
2023-04-06T20:18:15.895Z,100
2023-04-06T20:23:57.358Z,100
2023-04-06T20:29:15.901Z,100
2023-04-06T20:34:16.132Z,100
2023-04-06T20:39:57.366Z,100
2023-04-06T20:45:15.901Z,100
2023-04-06T20:50:15.904Z,100
2023-04-06T20:55:57.381Z,100
2023-04-06T21:00:57.401Z,100
2023-04-06T21:06:15.907Z,100
2023-04-06T21:11:57.399Z,100
2023-04-06T21:16:57.405Z,100
2023-04-06T21:22:15.899Z,100
2023-04-06T21:27:57.368Z,100
2023-04-06T21:33:15.895Z,100
2023-04-06T21:38:15.918Z,100
2023-04-06T21:43:57.372Z,100
2023-04-06T21:49:15.895Z,100
2023-04-06T21:54:15.997Z,100
2023-04-06T21:59:57.352Z,100
2023-04-06T22:04:57.429Z,100
2023-04-06T22:09:57.388Z,100
2023-04-06T22:15:15.890Z,100
2023-04-06T22:20:15.906Z,100
2023-04-06T22:25:57.379Z,100
2023-04-06T22:31:15.904Z,100
2023-04-06T22:36:57.355Z,100
2023-04-06T22:42:15.877Z,100
2023-04-06T22:47:15.910Z,100
2023-04-06T22:52:57.370Z,100
2023-04-06T22:57:57.386Z,100
2023-04-06T23:03:15.931Z,100
2023-04-06T23:08:57.398Z,100
2023-04-06T23:14:16.118Z,100
2023-04-06T23:19:57.362Z,100
2023-04-06T23:24:57.376Z,100
2023-04-06T23:30:15.879Z,100
2023-04-06T23:35:15.875Z,100
2023-04-06T23:40:15.907Z,100
2023-04-06T23:45:57.429Z,100
2023-04-06T23:51:19.520Z,100
2023-04-06T23:56:57.389Z,100
